sensor_id;sensor_type;location;lat;lon;timestamp;temperature;humidity
11824;DHT22;5969;50.780;7.726;2023-01-13T06:44:02;6.60;99.90
11824;DHT22;5969;50.780;7.726;2023-01-13T06:46:29;6.60;99.90
11824;DHT22;5969;50.780;7.726;2023-01-13T06:48:56;6.60;99.90
11824;DHT22;5969;50.780;7.726;2023-01-13T06:51:29;6.80;99.90
11824;DHT22;5969;50.780;7.726;2023-01-13T06:53:57;6.70;99.90
11824;DHT22;5969;50.780;7.726;2023-01-13T06:56:24;6.70;99.90
11824;DHT22;5969;50.780;7.726;2023-01-13T06:58:51;6.70;99.90
11824;DHT22;5969;50.780;7.726;2023-01-13T07:01:19;6.70;99.90
11824;DHT22;5969;50.780;7.726;2023-01-13T07:03:47;6.70;99.90
11824;DHT22;5969;50.780;7.726;2023-01-13T07:06:13;6.60;99.90
11824;DHT22;5969;50.780;7.726;2023-01-13T07:08:42;6.60;99.90
11824;DHT22;5969;50.780;7.726;2023-01-13T07:11:09;6.60;99.90
11824;DHT22;5969;50.780;7.726;2023-01-13T07:13:36;6.60;99.90
11824;DHT22;5969;50.780;7.726;2023-01-13T07:16:22;6.60;99.90
11824;DHT22;5969;50.780;7.726;2023-01-13T07:18:52;6.50;99.90
11824;DHT22;5969;50.780;7.726;2023-01-13T07:21:21;6.60;99.90
11824;DHT22;5969;50.780;7.726;2023-01-13T07:23:48;6.50;99.90
11824;DHT22;5969;50.780;7.726;2023-01-13T07:26:24;6.60;99.90
11824;DHT22;5969;50.780;7.726;2023-01-13T07:28:51;6.60;99.90
11824;DHT22;5969;50.780;7.726;2023-01-13T07:31:19;6.60;99.90
11824;DHT22;5969;50.780;7.726;2023-01-13T07:33:48;6.70;99.90
11824;DHT22;5969;50.780;7.726;2023-01-13T07:36:15;6.60;99.90
11824;DHT22;5969;50.780;7.726;2023-01-13T07:38:42;6.60;99.90
11824;DHT22;5969;50.780;7.726;2023-01-13T07:41:11;6.70;99.90
11824;DHT22;5969;50.780;7.726;2023-01-13T07:43:52;6.70;99.90
11824;DHT22;5969;50.780;7.726;2023-01-13T07:46:19;6.70;99.90
11824;DHT22;5969;50.780;7.726;2023-01-13T07:48:47;6.80;99.90
11824;DHT22;5969;50.780;7.726;2023-01-13T07:51:15;6.80;99.90
11824;DHT22;5969;50.780;7.726;2023-01-13T07:53:42;7.00;99.90
11824;DHT22;5969;50.780;7.726;2023-01-13T07:56:10;7.00;99.90
11824;DHT22;5969;50.780;7.726;2023-01-13T07:58:37;6.90;99.90
11824;DHT22;5969;50.780;7.726;2023-01-13T08:01:06;6.90;99.90
11824;DHT22;5969;50.780;7.726;2023-01-13T08:03:34;6.80;99.90
11824;DHT22;5969;50.780;7.726;2023-01-13T08:06:02;6.70;99.90
11824;DHT22;5969;50.780;7.726;2023-01-13T08:08:36;6.70;99.90
11824;DHT22;5969;50.780;7.726;2023-01-13T08:11:09;6.70;99.90
11824;DHT22;5969;50.780;7.726;2023-01-13T08:13:42;6.80;99.90
11824;DHT22;5969;50.780;7.726;2023-01-13T08:16:12;6.80;99.90
11824;DHT22;5969;50.780;7.726;2023-01-13T08:18:40;6.80;99.90
11824;DHT22;5969;50.780;7.726;2023-01-13T08:21:11;6.80;99.90
11824;DHT22;5969;50.780;7.726;2023-01-13T08:23:42;6.90;99.90
11824;DHT22;5969;50.780;7.726;2023-01-13T08:26:12;7.00;99.90
11824;DHT22;5969;50.780;7.726;2023-01-13T08:28:48;6.90;99.90
11824;DHT22;5969;50.780;7.726;2023-01-13T08:31:18;6.80;99.90
11824;DHT22;5969;50.780;7.726;2023-01-13T08:33:56;6.80;99.90
11824;DHT22;5969;50.780;7.726;2023-01-13T08:36:28;6.80;99.90
11824;DHT22;5969;50.780;7.726;2023-01-13T08:38:55;6.70;99.90
11824;DHT22;5969;50.780;7.726;2023-01-13T08:41:22;6.70;99.90
11824;DHT22;5969;50.780;7.726;2023-01-13T08:44:07;6.70;99.90
11824;DHT22;5969;50.780;7.726;2023-01-13T08:46:34;6.70;99.90
11824;DHT22;5969;50.780;7.726;2023-01-13T08:49:02;6.60;99.90
11824;DHT22;5969;50.780;7.726;2023-01-13T08:51:31;6.60;99.90
11824;DHT22;5969;50.780;7.726;2023-01-13T08:53:58;6.60;99.90
11824;DHT22;5969;50.780;7.726;2023-01-13T08:56:28;6.50;99.90
11824;DHT22;5969;50.780;7.726;2023-01-13T08:58:56;6.50;99.90
11824;DHT22;5969;50.780;7.726;2023-01-13T09:01:31;6.50;99.90
11824;DHT22;5969;50.780;7.726;2023-01-13T09:03:58;6.60;99.90
11824;DHT22;5969;50.780;7.726;2023-01-13T09:06:25;6.50;99.90
11824;DHT22;5969;50.780;7.726;2023-01-13T09:08:54;6.60;99.90
11824;DHT22;5969;50.780;7.726;2023-01-13T09:11:27;6.50;99.90
11824;DHT22;5969;50.780;7.726;2023-01-13T09:14:16;6.60;99.90
11824;DHT22;5969;50.780;7.726;2023-01-13T09:16:48;6.80;99.90
11824;DHT22;5969;50.780;7.726;2023-01-13T09:19:15;6.60;99.90
11824;DHT22;5969;50.780;7.726;2023-01-13T09:21:44;6.70;99.90
11824;DHT22;5969;50.780;7.726;2023-01-13T09:24:13;6.70;99.90
11824;DHT22;5969;50.780;7.726;2023-01-13T09:26:43;6.80;99.90
11824;DHT22;5969;50.780;7.726;2023-01-13T09:29:12;6.80;99.90
11824;DHT22;5969;50.780;7.726;2023-01-13T09:31:39;6.90;99.90
11824;DHT22;5969;50.780;7.726;2023-01-13T09:34:12;7.20;99.90
11824;DHT22;5969;50.780;7.726;2023-01-13T09:36:56;7.40;99.90
11824;DHT22;5969;50.780;7.726;2023-01-13T09:39:25;7.50;99.90
11824;DHT22;5969;50.780;7.726;2023-01-13T09:41:55;7.40;99.90
11824;DHT22;5969;50.780;7.726;2023-01-13T09:44:46;7.50;99.90
11824;DHT22;5969;50.780;7.726;2023-01-13T09:47:20;7.50;99.90
11824;DHT22;5969;50.780;7.726;2023-01-13T09:49:51;7.60;99.90
11824;DHT22;5969;50.780;7.726;2023-01-13T09:52:23;7.70;99.90
11824;DHT22;5969;50.780;7.726;2023-01-13T09:55:01;7.60;99.90
11824;DHT22;5969;50.780;7.726;2023-01-13T09:57:33;7.70;99.90
11824;DHT22;5969;50.780;7.726;2023-01-13T10:00:05;7.80;99.90
11824;DHT22;5969;50.780;7.726;2023-01-13T10:02:53;7.90;99.90
11824;DHT22;5969;50.780;7.726;2023-01-13T10:05:29;8.00;99.90
11824;DHT22;5969;50.780;7.726;2023-01-13T10:08:04;8.00;99.90
11824;DHT22;5969;50.780;7.726;2023-01-13T10:10:42;8.00;99.90
11824;DHT22;5969;50.780;7.726;2023-01-13T10:13:21;7.90;99.90
11824;DHT22;5969;50.780;7.726;2023-01-13T10:16:09;7.80;99.90
11824;DHT22;5969;50.780;7.726;2023-01-13T10:18:48;7.90;99.90
11824;DHT22;5969;50.780;7.726;2023-01-13T10:24:27;8.00;99.90
11824;DHT22;5969;50.780;7.726;2023-01-13T10:27:02;8.00;99.90
11824;DHT22;5969;50.780;7.726;2023-01-13T10:29:32;8.30;99.90
11824;DHT22;5969;50.780;7.726;2023-01-13T10:32:04;8.40;99.90
11824;DHT22;5969;50.780;7.726;2023-01-13T10:34:44;8.30;99.90
11824;DHT22;5969;50.780;7.726;2023-01-13T10:37:19;8.50;99.90
11824;DHT22;5969;50.780;7.726;2023-01-13T10:39:50;8.40;99.90
11824;DHT22;5969;50.780;7.726;2023-01-13T10:42:23;8.50;99.90
11824;DHT22;5969;50.780;7.726;2023-01-13T10:44:52;8.60;99.90
11824;DHT22;5969;50.780;7.726;2023-01-13T10:47:22;8.60;99.90
11824;DHT22;5969;50.780;7.726;2023-01-13T10:52:56;8.90;99.90
11824;DHT22;5969;50.780;7.726;2023-01-13T10:55:25;9.20;99.90
11824;DHT22;5969;50.780;7.726;2023-01-13T10:58:12;9.30;99.90
11824;DHT22;5969;50.780;7.726;2023-01-13T11:00:39;9.10;99.90
11824;DHT22;5969;50.780;7.726;2023-01-13T11:03:16;8.80;99.90
11824;DHT22;5969;50.780;7.726;2023-01-13T11:05:51;9.00;99.90
11824;DHT22;5969;50.780;7.726;2023-01-13T11:08:24;8.80;99.90
11824;DHT22;5969;50.780;7.726;2023-01-13T11:10:53;8.60;99.90
11824;DHT22;5969;50.780;7.726;2023-01-13T11:13:27;8.50;99.90
11824;DHT22;5969;50.780;7.726;2023-01-13T11:16:00;8.50;99.90
11824;DHT22;5969;50.780;7.726;2023-01-13T11:18:37;8.60;99.90
11824;DHT22;5969;50.780;7.726;2023-01-13T11:21:10;8.60;99.90
11824;DHT22;5969;50.780;7.726;2023-01-13T11:23:46;8.70;99.90
11824;DHT22;5969;50.780;7.726;2023-01-13T11:26:26;8.70;99.90
11824;DHT22;5969;50.780;7.726;2023-01-13T11:29:03;8.70;99.90
11824;DHT22;5969;50.780;7.726;2023-01-13T11:31:37;8.80;99.90
11824;DHT22;5969;50.780;7.726;2023-01-13T11:34:11;8.80;99.90
11824;DHT22;5969;50.780;7.726;2023-01-13T11:36:42;8.70;99.90
11824;DHT22;5969;50.780;7.726;2023-01-13T11:39:18;8.70;99.90
11824;DHT22;5969;50.780;7.726;2023-01-13T11:41:52;8.80;99.90
11824;DHT22;5969;50.780;7.726;2023-01-13T11:44:42;8.70;99.90
11824;DHT22;5969;50.780;7.726;2023-01-13T11:47:13;8.70;99.90
11824;DHT22;5969;50.780;7.726;2023-01-13T11:49:42;8.90;99.90
11824;DHT22;5969;50.780;7.726;2023-01-13T11:52:18;8.90;99.90
11824;DHT22;5969;50.780;7.726;2023-01-13T11:55:05;8.80;99.90
11824;DHT22;5969;50.780;7.726;2023-01-13T11:57:58;8.80;99.90
11824;DHT22;5969;50.780;7.726;2023-01-13T12:00:37;8.80;99.90
11824;DHT22;5969;50.780;7.726;2023-01-13T12:03:22;8.80;99.90
11824;DHT22;5969;50.780;7.726;2023-01-13T12:06:00;8.90;99.90
11824;DHT22;5969;50.780;7.726;2023-01-13T12:08:42;8.90;99.90
11824;DHT22;5969;50.780;7.726;2023-01-13T12:11:16;8.90;99.90
11824;DHT22;5969;50.780;7.726;2023-01-13T12:13:55;8.90;99.90
11824;DHT22;5969;50.780;7.726;2023-01-13T12:16:27;8.90;99.90
11824;DHT22;5969;50.780;7.726;2023-01-13T12:19:19;8.80;99.90
11824;DHT22;5969;50.780;7.726;2023-01-13T12:22:02;8.80;99.90
11824;DHT22;5969;50.780;7.726;2023-01-13T12:24:37;8.90;99.90
11824;DHT22;5969;50.780;7.726;2023-01-13T12:27:12;9.20;99.90
11824;DHT22;5969;50.780;7.726;2023-01-13T12:29:45;9.30;99.90
11824;DHT22;5969;50.780;7.726;2023-01-13T12:32:18;9.70;99.90
11824;DHT22;5969;50.780;7.726;2023-01-13T12:34:58;10.80;99.90
11824;DHT22;5969;50.780;7.726;2023-01-13T12:37:37;12.80;99.90
11824;DHT22;5969;50.780;7.726;2023-01-13T12:40:24;11.20;99.90
11824;DHT22;5969;50.780;7.726;2023-01-13T12:42:59;10.00;99.90
11824;DHT22;5969;50.780;7.726;2023-01-13T12:45:47;9.30;99.90
11824;DHT22;5969;50.780;7.726;2023-01-13T12:48:46;8.40;99.90
11824;DHT22;5969;50.780;7.726;2023-01-13T12:51:31;7.40;99.90
11824;DHT22;5969;50.780;7.726;2023-01-13T12:53:59;6.40;99.90
11824;DHT22;5969;50.780;7.726;2023-01-13T12:56:38;6.30;99.90
11824;DHT22;5969;50.780;7.726;2023-01-13T12:59:32;6.40;99.90
11824;DHT22;5969;50.780;7.726;2023-01-13T13:02:26;6.40;99.90
11824;DHT22;5969;50.780;7.726;2023-01-13T13:04:55;6.50;99.90
11824;DHT22;5969;50.780;7.726;2023-01-13T13:07:31;6.70;99.90
11824;DHT22;5969;50.780;7.726;2023-01-13T13:10:04;6.70;99.90
11824;DHT22;5969;50.780;7.726;2023-01-13T13:12:53;6.80;99.90
11824;DHT22;5969;50.780;7.726;2023-01-13T13:15:38;7.20;99.90
11824;DHT22;5969;50.780;7.726;2023-01-13T13:18:23;7.40;99.90
11824;DHT22;5969;50.780;7.726;2023-01-13T13:21:02;7.30;99.90
11824;DHT22;5969;50.780;7.726;2023-01-13T13:23:38;7.20;99.90
11824;DHT22;5969;50.780;7.726;2023-01-13T13:26:18;7.20;99.90
11824;DHT22;5969;50.780;7.726;2023-01-13T13:29:00;7.20;99.90
11824;DHT22;5969;50.780;7.726;2023-01-13T13:31:41;7.20;99.90
11824;DHT22;5969;50.780;7.726;2023-01-13T13:34:19;7.20;99.90
11824;DHT22;5969;50.780;7.726;2023-01-13T13:37:07;7.20;99.90
11824;DHT22;5969;50.780;7.726;2023-01-13T13:39:40;7.20;99.90
11824;DHT22;5969;50.780;7.726;2023-01-13T13:42:26;7.20;99.90
11824;DHT22;5969;50.780;7.726;2023-01-13T13:45:15;7.30;99.90
11824;DHT22;5969;50.780;7.726;2023-01-13T13:48:22;7.40;99.90
11824;DHT22;5969;50.780;7.726;2023-01-13T13:50:51;7.40;99.90
11824;DHT22;5969;50.780;7.726;2023-01-13T13:53:25;7.40;99.90
11824;DHT22;5969;50.780;7.726;2023-01-13T13:55:55;7.50;99.90
11824;DHT22;5969;50.780;7.726;2023-01-13T13:58:24;7.50;99.90
11824;DHT22;5969;50.780;7.726;2023-01-13T14:00:53;7.50;99.90
11824;DHT22;5969;50.780;7.726;2023-01-13T14:03:23;7.40;99.90
11824;DHT22;5969;50.780;7.726;2023-01-13T14:05:53;7.50;99.90
11824;DHT22;5969;50.780;7.726;2023-01-13T14:08:23;7.30;99.90
11824;DHT22;5969;50.780;7.726;2023-01-13T14:10:50;7.30;99.90
11824;DHT22;5969;50.780;7.726;2023-01-13T14:13:20;7.30;99.90
11824;DHT22;5969;50.780;7.726;2023-01-13T14:15:49;7.30;99.90
11824;DHT22;5969;50.780;7.726;2023-01-13T14:18:21;7.30;99.90
11824;DHT22;5969;50.780;7.726;2023-01-13T14:20:53;7.30;99.90
11824;DHT22;5969;50.780;7.726;2023-01-13T14:23:25;7.30;99.90
11824;DHT22;5969;50.780;7.726;2023-01-13T14:25:53;7.20;99.90
11824;DHT22;5969;50.780;7.726;2023-01-13T14:28:36;7.20;99.90
11824;DHT22;5969;50.780;7.726;2023-01-13T14:31:04;7.30;99.90
11824;DHT22;5969;50.780;7.726;2023-01-13T14:33:34;7.30;99.90
11824;DHT22;5969;50.780;7.726;2023-01-13T14:36:14;7.20;99.90
11824;DHT22;5969;50.780;7.726;2023-01-13T14:38:44;7.10;99.90
11824;DHT22;5969;50.780;7.726;2023-01-13T14:41:16;6.90;99.90
11824;DHT22;5969;50.780;7.726;2023-01-13T14:43:45;6.80;99.90
11824;DHT22;5969;50.780;7.726;2023-01-13T14:46:13;6.70;99.90
11824;DHT22;5969;50.780;7.726;2023-01-13T14:48:43;6.50;99.90
11824;DHT22;5969;50.780;7.726;2023-01-13T14:51:21;6.40;99.90
11824;DHT22;5969;50.780;7.726;2023-01-13T14:56:50;6.30;99.90
11824;DHT22;5969;50.780;7.726;2023-01-13T15:03:04;6.30;99.90
11824;DHT22;5969;50.780;7.726;2023-01-13T15:05:40;6.30;99.90
11824;DHT22;5969;50.780;7.726;2023-01-13T15:08:36;6.30;99.90
11824;DHT22;5969;50.780;7.726;2023-01-13T15:11:17;6.20;99.90
11824;DHT22;5969;50.780;7.726;2023-01-13T15:14:14;6.20;99.90
11824;DHT22;5969;50.780;7.726;2023-01-13T15:16:43;6.20;99.90
11824;DHT22;5969;50.780;7.726;2023-01-13T15:19:13;6.20;99.90
11824;DHT22;5969;50.780;7.726;2023-01-13T15:21:42;6.10;99.90
11824;DHT22;5969;50.780;7.726;2023-01-13T15:24:09;6.20;99.90
11824;DHT22;5969;50.780;7.726;2023-01-13T15:26:39;6.10;99.90
11824;DHT22;5969;50.780;7.726;2023-01-13T15:29:18;6.20;99.90
11824;DHT22;5969;50.780;7.726;2023-01-13T15:31:47;6.20;99.90
11824;DHT22;5969;50.780;7.726;2023-01-13T15:34:16;6.20;99.90
11824;DHT22;5969;50.780;7.726;2023-01-13T15:36:43;6.20;99.90
11824;DHT22;5969;50.780;7.726;2023-01-13T15:39:12;6.20;99.90
11824;DHT22;5969;50.780;7.726;2023-01-13T15:41:39;6.20;99.90
11824;DHT22;5969;50.780;7.726;2023-01-13T15:44:24;6.10;99.90
11824;DHT22;5969;50.780;7.726;2023-01-13T15:47:09;6.20;99.90
11824;DHT22;5969;50.780;7.726;2023-01-13T15:49:38;6.20;99.90
11824;DHT22;5969;50.780;7.726;2023-01-13T15:52:17;6.30;99.90
11824;DHT22;5969;50.780;7.726;2023-01-13T15:55:01;6.20;99.90
11824;DHT22;5969;50.780;7.726;2023-01-13T15:57:29;6.30;99.90
11824;DHT22;5969;50.780;7.726;2023-01-13T16:00:00;6.30;99.90
11824;DHT22;5969;50.780;7.726;2023-01-13T16:02:28;6.40;99.90
11824;DHT22;5969;50.780;7.726;2023-01-13T16:04:56;6.40;99.90
11824;DHT22;5969;50.780;7.726;2023-01-13T16:07:34;6.40;99.90
11824;DHT22;5969;50.780;7.726;2023-01-13T16:10:07;6.40;99.90
11824;DHT22;5969;50.780;7.726;2023-01-13T16:12:49;6.50;99.90
11824;DHT22;5969;50.780;7.726;2023-01-13T16:15:24;6.50;99.90
11824;DHT22;5969;50.780;7.726;2023-01-13T16:18:14;6.50;99.90
11824;DHT22;5969;50.780;7.726;2023-01-13T16:20:41;6.50;99.90
11824;DHT22;5969;50.780;7.726;2023-01-13T16:23:11;6.40;99.90
11824;DHT22;5969;50.780;7.726;2023-01-13T16:25:38;6.40;99.90
11824;DHT22;5969;50.780;7.726;2023-01-13T16:28:18;6.40;99.90
11824;DHT22;5969;50.780;7.726;2023-01-13T16:30:53;6.40;99.90
11824;DHT22;5969;50.780;7.726;2023-01-13T16:33:20;6.40;99.90
11824;DHT22;5969;50.780;7.726;2023-01-13T16:35:59;6.40;99.90
11824;DHT22;5969;50.780;7.726;2023-01-13T16:38:30;6.40;99.90
11824;DHT22;5969;50.780;7.726;2023-01-13T16:40:59;6.50;99.90
11824;DHT22;5969;50.780;7.726;2023-01-13T16:43:29;6.40;99.90
11824;DHT22;5969;50.780;7.726;2023-01-13T16:45:58;6.40;99.90
11824;DHT22;5969;50.780;7.726;2023-01-13T16:48:29;6.40;99.90
11824;DHT22;5969;50.780;7.726;2023-01-13T16:51:00;6.40;99.90
11824;DHT22;5969;50.780;7.726;2023-01-13T16:53:27;6.40;99.90
11824;DHT22;5969;50.780;7.726;2023-01-13T16:55:56;6.40;99.90
11824;DHT22;5969;50.780;7.726;2023-01-13T16:58:26;6.60;99.90
11824;DHT22;5969;50.780;7.726;2023-01-13T17:01:03;6.50;99.90
11824;DHT22;5969;50.780;7.726;2023-01-13T17:03:30;6.50;99.90
11824;DHT22;5969;50.780;7.726;2023-01-13T17:06:03;6.60;99.90
11824;DHT22;5969;50.780;7.726;2023-01-13T17:08:33;6.70;99.90
11824;DHT22;5969;50.780;7.726;2023-01-13T17:11:03;6.70;99.90
11824;DHT22;5969;50.780;7.726;2023-01-13T17:13:33;6.70;99.90
11824;DHT22;5969;50.780;7.726;2023-01-13T17:16:07;6.70;99.90
11824;DHT22;5969;50.780;7.726;2023-01-13T17:18:39;6.70;99.90
11824;DHT22;5969;50.780;7.726;2023-01-13T17:21:09;6.70;99.90
11824;DHT22;5969;50.780;7.726;2023-01-13T17:23:38;6.70;99.90
11824;DHT22;5969;50.780;7.726;2023-01-13T17:26:08;6.70;99.90
11824;DHT22;5969;50.780;7.726;2023-01-13T17:28:47;6.70;99.90
11824;DHT22;5969;50.780;7.726;2023-01-13T17:31:18;6.70;99.90
11824;DHT22;5969;50.780;7.726;2023-01-13T17:33:57;6.70;99.90
11824;DHT22;5969;50.780;7.726;2023-01-13T17:36:24;6.70;99.90
11824;DHT22;5969;50.780;7.726;2023-01-13T17:39:05;6.60;99.90
11824;DHT22;5969;50.780;7.726;2023-01-13T17:41:53;6.70;99.90
11824;DHT22;5969;50.780;7.726;2023-01-13T17:44:24;6.60;99.90
11824;DHT22;5969;50.780;7.726;2023-01-13T17:46:54;6.60;99.90
11824;DHT22;5969;50.780;7.726;2023-01-13T17:49:25;6.60;99.90
11824;DHT22;5969;50.780;7.726;2023-01-13T17:51:52;6.60;99.90
11824;DHT22;5969;50.780;7.726;2023-01-13T17:54:22;6.60;99.90
11824;DHT22;5969;50.780;7.726;2023-01-13T17:56:49;6.50;99.90
11824;DHT22;5969;50.780;7.726;2023-01-13T17:59:30;6.30;99.90
11824;DHT22;5969;50.780;7.726;2023-01-13T18:02:00;6.30;99.90
11824;DHT22;5969;50.780;7.726;2023-01-13T18:04:32;6.30;99.90
11824;DHT22;5969;50.780;7.726;2023-01-13T18:07:05;6.30;99.90
11824;DHT22;5969;50.780;7.726;2023-01-13T18:09:33;6.20;99.90
11824;DHT22;5969;50.780;7.726;2023-01-13T18:15:21;6.20;99.90
11824;DHT22;5969;50.780;7.726;2023-01-13T18:17:52;6.30;99.90
11824;DHT22;5969;50.780;7.726;2023-01-13T18:20:23;6.30;99.90
11824;DHT22;5969;50.780;7.726;2023-01-13T18:23:18;6.30;99.90
11824;DHT22;5969;50.780;7.726;2023-01-13T18:26:16;6.30;99.90
11824;DHT22;5969;50.780;7.726;2023-01-13T18:29:04;6.30;99.90
11824;DHT22;5969;50.780;7.726;2023-01-13T18:31:37;6.30;99.90
11824;DHT22;5969;50.780;7.726;2023-01-13T18:34:05;6.30;99.90
11824;DHT22;5969;50.780;7.726;2023-01-13T18:36:39;6.40;99.90
11824;DHT22;5969;50.780;7.726;2023-01-13T18:39:14;6.40;99.90
11824;DHT22;5969;50.780;7.726;2023-01-13T18:41:41;6.40;99.90
11824;DHT22;5969;50.780;7.726;2023-01-13T18:44:25;6.40;99.90
11824;DHT22;5969;50.780;7.726;2023-01-13T18:46:53;6.50;99.90
11824;DHT22;5969;50.780;7.726;2023-01-13T18:49:27;6.50;99.90
11824;DHT22;5969;50.780;7.726;2023-01-13T18:51:54;6.50;99.90
11824;DHT22;5969;50.780;7.726;2023-01-13T18:54:22;6.40;99.90
11824;DHT22;5969;50.780;7.726;2023-01-13T18:56:49;6.40;99.90
11824;DHT22;5969;50.780;7.726;2023-01-13T18:59:20;6.50;99.90
11824;DHT22;5969;50.780;7.726;2023-01-13T19:01:50;6.50;99.90
11824;DHT22;5969;50.780;7.726;2023-01-13T19:04:20;6.50;99.90
11824;DHT22;5969;50.780;7.726;2023-01-13T19:06:54;6.40;99.90
11824;DHT22;5969;50.780;7.726;2023-01-13T19:09:26;6.40;99.90
11824;DHT22;5969;50.780;7.726;2023-01-13T19:11:56;6.50;99.90
11824;DHT22;5969;50.780;7.726;2023-01-13T19:14:46;6.50;99.90
11824;DHT22;5969;50.780;7.726;2023-01-13T19:17:18;6.40;99.90
11824;DHT22;5969;50.780;7.726;2023-01-13T19:20:01;6.40;99.90
11824;DHT22;5969;50.780;7.726;2023-01-13T19:22:44;6.50;99.90
11824;DHT22;5969;50.780;7.726;2023-01-13T19:25:18;6.50;99.90
11824;DHT22;5969;50.780;7.726;2023-01-13T19:27:48;6.60;99.90
11824;DHT22;5969;50.780;7.726;2023-01-13T19:30:16;6.50;99.90
11824;DHT22;5969;50.780;7.726;2023-01-13T19:32:44;6.60;99.90
11824;DHT22;5969;50.780;7.726;2023-01-13T19:35:14;6.50;99.90
11824;DHT22;5969;50.780;7.726;2023-01-13T19:37:49;6.50;99.90
11824;DHT22;5969;50.780;7.726;2023-01-13T19:40:20;6.50;99.90
11824;DHT22;5969;50.780;7.726;2023-01-13T19:42:51;6.60;99.90
11824;DHT22;5969;50.780;7.726;2023-01-13T19:45:35;6.60;99.90
11824;DHT22;5969;50.780;7.726;2023-01-13T19:48:03;6.50;99.90
11824;DHT22;5969;50.780;7.726;2023-01-13T19:50:37;6.60;99.90
11824;DHT22;5969;50.780;7.726;2023-01-13T19:53:14;6.60;99.90
11824;DHT22;5969;50.780;7.726;2023-01-13T19:55:50;6.70;99.90
11824;DHT22;5969;50.780;7.726;2023-01-13T19:58:32;6.70;99.90
11824;DHT22;5969;50.780;7.726;2023-01-13T20:01:00;6.60;99.90
11824;DHT22;5969;50.780;7.726;2023-01-13T20:03:36;6.60;99.90
11824;DHT22;5969;50.780;7.726;2023-01-13T20:06:15;6.70;99.90
11824;DHT22;5969;50.780;7.726;2023-01-13T20:08:49;6.60;99.90
11824;DHT22;5969;50.780;7.726;2023-01-13T20:11:47;6.70;99.90
11824;DHT22;5969;50.780;7.726;2023-01-13T20:14:19;6.60;99.90
11824;DHT22;5969;50.780;7.726;2023-01-13T20:16:53;6.60;99.90
11824;DHT22;5969;50.780;7.726;2023-01-13T20:19:25;6.60;99.90
11824;DHT22;5969;50.780;7.726;2023-01-13T20:21:57;6.60;99.90
11824;DHT22;5969;50.780;7.726;2023-01-13T20:24:33;6.70;99.90
11824;DHT22;5969;50.780;7.726;2023-01-13T20:27:08;6.70;99.90
11824;DHT22;5969;50.780;7.726;2023-01-13T20:29:49;6.60;99.90
11824;DHT22;5969;50.780;7.726;2023-01-13T20:32:18;6.50;99.90
11824;DHT22;5969;50.780;7.726;2023-01-13T20:34:53;6.60;99.90
11824;DHT22;5969;50.780;7.726;2023-01-13T20:37:56;6.60;99.90
11824;DHT22;5969;50.780;7.726;2023-01-13T20:40:26;6.70;99.90
11824;DHT22;5969;50.780;7.726;2023-01-13T20:42:53;6.60;99.90
11824;DHT22;5969;50.780;7.726;2023-01-13T20:45:20;6.60;99.90
11824;DHT22;5969;50.780;7.726;2023-01-13T20:47:48;6.50;99.90
11824;DHT22;5969;50.780;7.726;2023-01-13T20:50:15;6.60;99.90
11824;DHT22;5969;50.780;7.726;2023-01-13T20:52:45;6.60;99.90
11824;DHT22;5969;50.780;7.726;2023-01-13T20:55:16;6.60;99.90
11824;DHT22;5969;50.780;7.726;2023-01-13T20:57:57;6.60;99.90
11824;DHT22;5969;50.780;7.726;2023-01-13T21:00:25;6.60;99.90
11824;DHT22;5969;50.780;7.726;2023-01-13T21:03:07;6.60;99.90
11824;DHT22;5969;50.780;7.726;2023-01-13T21:05:47;6.50;99.90
11824;DHT22;5969;50.780;7.726;2023-01-13T21:08:14;6.50;99.90
11824;DHT22;5969;50.780;7.726;2023-01-13T21:10:47;6.50;99.90
11824;DHT22;5969;50.780;7.726;2023-01-13T21:13:16;6.60;99.90
11824;DHT22;5969;50.780;7.726;2023-01-13T21:16:00;6.60;99.90
11824;DHT22;5969;50.780;7.726;2023-01-13T21:18:27;6.50;99.90
11824;DHT22;5969;50.780;7.726;2023-01-13T21:21:11;6.60;99.90
11824;DHT22;5969;50.780;7.726;2023-01-13T21:23:38;6.50;99.90
11824;DHT22;5969;50.780;7.726;2023-01-13T21:26:06;6.50;99.90
11824;DHT22;5969;50.780;7.726;2023-01-13T21:28:35;6.70;99.90
11824;DHT22;5969;50.780;7.726;2023-01-13T21:31:14;6.60;99.90
11824;DHT22;5969;50.780;7.726;2023-01-13T21:33:43;6.60;99.90
11824;DHT22;5969;50.780;7.726;2023-01-13T21:36:17;6.60;99.90
11824;DHT22;5969;50.780;7.726;2023-01-13T21:38:49;6.60;99.90
11824;DHT22;5969;50.780;7.726;2023-01-13T21:41:21;6.60;99.90
11824;DHT22;5969;50.780;7.726;2023-01-13T21:44:13;6.60;99.90
11824;DHT22;5969;50.780;7.726;2023-01-13T21:46:58;6.60;99.90
11824;DHT22;5969;50.780;7.726;2023-01-13T21:49:51;6.60;99.90
11824;DHT22;5969;50.780;7.726;2023-01-13T21:52:18;6.50;99.90
11824;DHT22;5969;50.780;7.726;2023-01-13T21:54:46;6.60;99.90
11824;DHT22;5969;50.780;7.726;2023-01-13T21:57:30;6.70;99.90
11824;DHT22;5969;50.780;7.726;2023-01-13T21:59:58;6.70;99.90
11824;DHT22;5969;50.780;7.726;2023-01-13T22:02:25;6.60;99.90
11824;DHT22;5969;50.780;7.726;2023-01-13T22:05:06;6.70;99.90
11824;DHT22;5969;50.780;7.726;2023-01-13T22:07:34;6.70;99.90
11824;DHT22;5969;50.780;7.726;2023-01-13T22:10:01;6.80;99.90
11824;DHT22;5969;50.780;7.726;2023-01-13T22:12:28;6.80;99.90
11824;DHT22;5969;50.780;7.726;2023-01-13T22:14:55;6.70;99.90
11824;DHT22;5969;50.780;7.726;2023-01-13T22:17:46;6.90;99.90
11824;DHT22;5969;50.780;7.726;2023-01-13T22:20:15;6.80;99.90
11824;DHT22;5969;50.780;7.726;2023-01-13T22:22:43;6.80;99.90
11824;DHT22;5969;50.780;7.726;2023-01-13T22:25:12;6.80;99.90
11824;DHT22;5969;50.780;7.726;2023-01-13T22:27:40;6.90;99.90
11824;DHT22;5969;50.780;7.726;2023-01-13T22:30:11;6.90;99.90
11824;DHT22;5969;50.780;7.726;2023-01-13T22:32:41;6.80;99.90
11824;DHT22;5969;50.780;7.726;2023-01-13T22:35:11;6.80;99.90
11824;DHT22;5969;50.780;7.726;2023-01-13T22:37:39;6.80;99.90
11824;DHT22;5969;50.780;7.726;2023-01-13T22:40:07;6.90;99.90
11824;DHT22;5969;50.780;7.726;2023-01-13T22:42:36;6.90;99.90
11824;DHT22;5969;50.780;7.726;2023-01-13T22:45:05;6.80;99.90
11824;DHT22;5969;50.780;7.726;2023-01-13T22:47:32;6.90;99.90
11824;DHT22;5969;50.780;7.726;2023-01-13T22:49:59;6.90;99.90
11824;DHT22;5969;50.780;7.726;2023-01-13T22:52:27;6.90;99.90
11824;DHT22;5969;50.780;7.726;2023-01-13T22:54:54;6.90;99.90
11824;DHT22;5969;50.780;7.726;2023-01-13T22:57:22;6.90;99.90
11824;DHT22;5969;50.780;7.726;2023-01-13T22:59:53;6.90;99.90
11824;DHT22;5969;50.780;7.726;2023-01-13T23:02:19;6.90;99.90
11824;DHT22;5969;50.780;7.726;2023-01-13T23:04:46;6.90;99.90
11824;DHT22;5969;50.780;7.726;2023-01-13T23:07:13;6.80;99.90
11824;DHT22;5969;50.780;7.726;2023-01-13T23:09:41;6.90;99.90
11824;DHT22;5969;50.780;7.726;2023-01-13T23:12:08;7.00;99.90
11824;DHT22;5969;50.780;7.726;2023-01-13T23:14:35;6.90;99.90
11824;DHT22;5969;50.780;7.726;2023-01-13T23:17:02;6.90;99.90
11824;DHT22;5969;50.780;7.726;2023-01-13T23:19:30;6.80;99.90
11824;DHT22;5969;50.780;7.726;2023-01-13T23:21:57;6.80;99.90
11824;DHT22;5969;50.780;7.726;2023-01-13T23:24:27;6.80;99.90
11824;DHT22;5969;50.780;7.726;2023-01-13T23:26:55;6.80;99.90
11824;DHT22;5969;50.780;7.726;2023-01-13T23:29:22;6.80;99.90
11824;DHT22;5969;50.780;7.726;2023-01-13T23:31:49;6.80;99.90
11824;DHT22;5969;50.780;7.726;2023-01-13T23:34:16;6.80;99.90
11824;DHT22;5969;50.780;7.726;2023-01-13T23:36:44;6.80;99.90
11824;DHT22;5969;50.780;7.726;2023-01-13T23:39:11;6.80;99.90
11824;DHT22;5969;50.780;7.726;2023-01-13T23:41:38;6.80;99.90